Time;durP1;ratioP1;P1;durP2;ratioP2;P2;SDS_P1;SDS_P2;PMS_P1;PMS_P2;Temp;Humidity;BMP_temperature;BMP_pressure;BME280_temperature;BME280_humidity;BME280_pressure;Samples;Min_cycle;Max_cycle;Signal;HPM_P1;HPM_P2
2019/11/08 00:02:04;;;;;;;5.8;4.3;;;;;;;;;;;;;
2019/11/08 00:04:29;;;;;;;6;4.7;;;;;;;;;;;;;
2019/11/08 00:06:54;;;;;;;7.6;4.4;;;;;;;;;;;;;
2019/11/08 00:09:19;;;;;;;4.9;4.4;;;;;;;;;;;;;
2019/11/08 00:11:44;;;;;;;6.4;5;;;;;;;;;;;;;
2019/11/08 00:14:09;;;;;;;5.4;4.5;;;;;;;;;;;;;
2019/11/08 00:16:34;;;;;;;6.9;5;;;;;;;;;;;;;
2019/11/08 00:18:59;;;;;;;5.3;4.6;;;;;;;;;;;;;
2019/11/08 00:21:24;;;;;;;5.1;4.5;;;;;;;;;;;;;
2019/11/08 00:23:49;;;;;;;5.9;4.4;;;;;;;;;;;;;
2019/11/08 00:26:14;;;;;;;5.2;4.7;;;;;;;;;;;;;
2019/11/08 00:28:39;;;;;;;5.1;4.3;;;;;;;;;;;;;
2019/11/08 00:31:05;;;;;;;5.4;4.1;;;;;;;;;;;;;
2019/11/08 00:33:30;;;;;;;4.8;4;;;;;;;;;;;;;
2019/11/08 00:35:55;;;;;;;6;4.4;;;;;;;;;;;;;
2019/11/08 00:38:20;;;;;;;5.7;4.2;;;;;;;;;;;;;
2019/11/08 00:40:45;;;;;;;4.9;3.8;;;;;;;;;;;;;
2019/11/08 00:43:10;;;;;;;4.3;3.9;;;;;;;;;;;;;
2019/11/08 00:45:35;;;;;;;5.4;4.3;;;;;;;;;;;;;
2019/11/08 00:48:00;;;;;;;5.7;4.3;;;;;;;;;;;;;
2019/11/08 00:50:25;;;;;;;6.1;4.5;;;;;;;;;;;;;
2019/11/08 00:52:50;;;;;;;6.4;4.8;;;;;;;;;;;;;
2019/11/08 00:55:15;;;;;;;4.9;4.4;;;;;;;;;;;;;
2019/11/08 00:57:40;;;;;;;6.2;4.8;;;;;;;;;;;;;
2019/11/08 01:02:31;;;;;;;6.3;4.7;;;;;;;;;;;;;
2019/11/08 01:04:56;;;;;;;6.6;4.8;;;;;;;;;;;;;
2019/11/08 01:07:21;;;;;;;5.2;4.6;;;;;;;;;;;;;
2019/11/08 01:09:46;;;;;;;6.3;5.1;;;;;;;;;;;;;
2019/11/08 01:12:11;;;;;;;6.5;5.2;;;;;;;;;;;;;
2019/11/08 01:14:36;;;;;;;7.2;5.1;;;;;;;;;;;;;
2019/11/08 01:17:01;;;;;;;6.1;5;;;;;;;;;;;;;
2019/11/08 01:19:26;;;;;;;6.6;4.9;;;;;;;;;;;;;
2019/11/08 01:21:52;;;;;;;5.9;5;;;;;;;;;;;;;
2019/11/08 01:24:16;;;;;;;5.2;4.6;;;;;;;;;;;;;
2019/11/08 01:26:42;;;;;;;7;4.6;;;;;;;;;;;;;
2019/11/08 01:29:07;;;;;;;6.3;4.8;;;;;;;;;;;;;
2019/11/08 01:31:32;;;;;;;5.4;4.9;;;;;;;;;;;;;
2019/11/08 01:33:57;;;;;;;6.2;4.7;;;;;;;;;;;;;
2019/11/08 01:36:22;;;;;;;6.9;4.6;;;;;;;;;;;;;
2019/11/08 01:38:47;;;;;;;6.2;5.2;;;;;;;;;;;;;
2019/11/08 01:41:12;;;;;;;5.9;5;;;;;;;;;;;;;
2019/11/08 01:43:37;;;;;;;5.1;4.6;;;;;;;;;;;;;
2019/11/08 01:46:02;;;;;;;5.4;4.8;;;;;;;;;;;;;
2019/11/08 01:48:27;;;;;;;6.3;4.9;;;;;;;;;;;;;
2019/11/08 01:50:52;;;;;;;5.8;5.2;;;;;;;;;;;;;
2019/11/08 01:53:18;;;;;;;5.9;4.8;;;;;;;;;;;;;
2019/11/08 01:55:43;;;;;;;6;4.6;;;;;;;;;;;;;
2019/11/08 01:58:08;;;;;;;5.3;4.3;;;;;;;;;;;;;
2019/11/08 02:00:33;;;;;;;5.3;4.7;;;;;;;;;;;;;
2019/11/08 02:02:58;;;;;;;5.3;4.8;;;;;;;;;;;;;
2019/11/08 02:05:23;;;;;;;5.8;4.8;;;;;;;;;;;;;
2019/11/08 02:07:48;;;;;;;6.5;5;;;;;;;;;;;;;
2019/11/08 02:10:13;;;;;;;5.2;4.6;;;;;;;;;;;;;
2019/11/08 02:12:38;;;;;;;5.8;4.5;;;;;;;;;;;;;
2019/11/08 02:15:04;;;;;;;5.6;4.8;;;;;;;;;;;;;
2019/11/08 02:19:54;;;;;;;5.3;4.7;;;;;;;;;;;;;
2019/11/08 02:22:19;;;;;;;6.1;5.3;;;;;;;;;;;;;
2019/11/08 02:24:44;;;;;;;6.8;4.9;;;;;;;;;;;;;
2019/11/08 02:27:09;;;;;;;6.5;5.2;;;;;;;;;;;;;
2019/11/08 02:29:34;;;;;;;5.9;4.8;;;;;;;;;;;;;
2019/11/08 02:31:59;;;;;;;7.3;4.8;;;;;;;;;;;;;
2019/11/08 02:34:24;;;;;;;5.9;4.8;;;;;;;;;;;;;
2019/11/08 02:36:49;;;;;;;8.6;5.2;;;;;;;;;;;;;
2019/11/08 02:39:14;;;;;;;6;5.3;;;;;;;;;;;;;
2019/11/08 02:41:39;;;;;;;5.5;4.6;;;;;;;;;;;;;
2019/11/08 02:44:04;;;;;;;6.8;5.1;;;;;;;;;;;;;
2019/11/08 02:46:29;;;;;;;6.8;5.3;;;;;;;;;;;;;
2019/11/08 02:48:55;;;;;;;6;5;;;;;;;;;;;;;
2019/11/08 02:51:20;;;;;;;6.5;4.9;;;;;;;;;;;;;
2019/11/08 02:53:45;;;;;;;7.4;5;;;;;;;;;;;;;
2019/11/08 02:56:10;;;;;;;6.3;5.2;;;;;;;;;;;;;
2019/11/08 02:58:35;;;;;;;6.3;4.9;;;;;;;;;;;;;
2019/11/08 03:01:00;;;;;;;5.8;5;;;;;;;;;;;;;
2019/11/08 03:04:09;;;;;;;5.2;4.5;;;;;;;6.79;94.07617;948.5524;;;;
2019/11/08 03:06:34;;;;;;;7.6;5;;;;;;;6.75;93.84961;948.5912;;;;
2019/11/08 03:08:59;;;;;;;5.6;5;;;;;;;6.77;93.72852;948.6167;;;;
2019/11/08 03:11:24;;;;;;;6.4;4.7;;;;;;;6.78;93.60449;948.6686;;;;
2019/11/08 03:13:49;;;;;;;7.8;5.1;;;;;;;6.74;93.52832;948.6138;;;;
2019/11/08 03:16:14;;;;;;;7.2;4.9;;;;;;;6.71;93.44141;948.6141;;;;
2019/11/08 03:18:39;;;;;;;8.1;5.8;;;;;;;6.9;92.95703;948.5659;;;;
2019/11/08 03:21:04;;;;;;;6.6;4.8;;;;;;;6.96;93.08691;948.4689;;;;
2019/11/08 03:23:29;;;;;;;7.9;5.2;;;;;;;6.89;94.13086;948.4138;;;;
2019/11/08 03:25:55;;;;;;;6.8;4.9;;;;;;;6.96;93.34766;948.451;;;;
2019/11/08 03:28:20;;;;;;;8.7;5.8;;;;;;;7.03;92.93066;948.4652;;;;
2019/11/08 03:30:45;;;;;;;7.9;6.8;;;;;;;7.07;94.58105;948.3628;;;;
2019/11/08 03:33:10;;;;;;;11.1;7.5;;;;;;;7.1;94.99805;948.2903;;;;
2019/11/08 03:35:35;;;;;;;17.1;11.2;;;;;;;7.04;93.03418;948.1948;;;;
2019/11/08 03:38:00;;;;;;;15.5;10.9;;;;;;;7.04;93.50195;948.1802;;;;
2019/11/08 03:40:25;;;;;;;15.1;10.4;;;;;;;7.01;94.35156;948.2494;;;;
2019/11/08 03:42:50;;;;;;;10.8;8.5;;;;;;;7;93.80176;948.2712;;;;
2019/11/08 03:45:16;;;;;;;12.2;8.6;;;;;;;6.98;95.01758;948.2173;;;;
2019/11/08 03:47:41;;;;;;;9.2;7.8;;;;;;;7.1;95.0791;948.1713;;;;
2019/11/08 03:50:06;;;;;;;9;8.1;;;;;;;7.05;95.52441;948.1316;;;;
2019/11/08 03:52:31;;;;;;;9.6;8.1;;;;;;;7.02;95.1416;948.034;;;;
2019/11/08 03:54:56;;;;;;;9.5;7.5;;;;;;;7.06;93.78125;947.9376;;;;
2019/11/08 03:57:21;;;;;;;10.2;8.9;;;;;;;7;95.72949;947.8903;;;;
2019/11/08 03:59:46;;;;;;;11.1;9.1;;;;;;;6.87;96.20313;947.8789;;;;
2019/11/08 04:02:26;;;;;;;9.8;8.8;;;;;;;6.74;96.68848;947.8027;;;;
2019/11/08 04:04:51;;;;;;;11.2;9.6;;;;;;;6.81;96.83984;947.7988;;;;
2019/11/08 04:07:16;;;;;;;11.3;9.8;;;;;;;6.79;97.65918;947.738;;;;
2019/11/08 04:09:42;;;;;;;10.3;9.2;;;;;;;7.04;96.6748;947.6554;;;;
2019/11/08 04:12:07;;;;;;;9.3;8.4;;;;;;;7.03;95.97656;947.6205;;;;
2019/11/08 04:14:32;;;;;;;9;8.1;;;;;;;7.1;93.64063;947.5913;;;;
2019/11/08 04:16:57;;;;;;;10;8.7;;;;;;;6.92;95.14258;947.5137;;;;
2019/11/08 04:19:22;;;;;;;16.6;11.8;;;;;;;6.8;96.47266;947.4756;;;;
2019/11/08 04:21:47;;;;;;;14.3;11.3;;;;;;;6.96;95.83691;947.4891;;;;
2019/11/08 04:24:12;;;;;;;17.4;11.5;;;;;;;6.82;96.5791;947.3996;;;;
2019/11/08 04:26:37;;;;;;;13.9;11.4;;;;;;;6.76;98.40137;947.3098;;;;
2019/11/08 04:29:02;;;;;;;11.9;10.8;;;;;;;6.77;98.14355;947.3926;;;;
2019/11/08 04:31:28;;;;;;;12.1;10.8;;;;;;;6.81;98.36816;947.4562;;;;
2019/11/08 04:33:53;;;;;;;12;10.8;;;;;;;6.81;97.61523;947.3292;;;;
2019/11/08 04:36:18;;;;;;;13.3;11.6;;;;;;;6.74;99.10449;947.2134;;;;
2019/11/08 04:38:43;;;;;;;13.8;11.6;;;;;;;6.73;99.73242;947.1494;;;;
2019/11/08 04:41:08;;;;;;;14.4;11.9;;;;;;;6.78;99.29785;947.1806;;;;
2019/11/08 04:43:33;;;;;;;12.8;11.4;;;;;;;6.72;99;947.0795;;;;
2019/11/08 04:45:59;;;;;;;13.8;12;;;;;;;6.76;99.04297;947.0656;;;;
2019/11/08 04:48:24;;;;;;;14.3;12;;;;;;;6.65;98.88086;947.0389;;;;
2019/11/08 04:50:49;;;;;;;12.1;10.9;;;;;;;6.66;98.62012;947.1256;;;;
2019/11/08 04:53:14;;;;;;;11.2;10.1;;;;;;;6.71;97.60449;947.1604;;;;
2019/11/08 04:55:39;;;;;;;11.6;10.4;;;;;;;6.62;98.22461;947.2619;;;;
2019/11/08 04:58:04;;;;;;;11.2;10.1;;;;;;;6.8;97.52246;947.2296;;;;
2019/11/08 05:00:29;;;;;;;12.8;11.5;;;;;;;6.49;99.21777;947.115;;;;
2019/11/08 05:02:55;;;;;;;12.9;11;;;;;;;6.63;98.63477;947.1713;;;;
2019/11/08 05:05:20;;;;;;;13.1;10.8;;;;;;;6.65;97.76074;947.2518;;;;
2019/11/08 05:07:45;;;;;;;12.6;11.4;;;;;;;6.41;98.00391;947.2929;;;;
2019/11/08 05:10:10;;;;;;;12.7;11.4;;;;;;;6.34;98.58008;947.2394;;;;
2019/11/08 05:12:35;;;;;;;12.9;11.7;;;;;;;6.36;98.60938;947.2654;;;;
2019/11/08 05:15:01;;;;;;;14.3;12.9;;;;;;;6.27;99.89941;947.2778;;;;
2019/11/08 05:17:26;;;;;;;12.8;11.6;;;;;;;6.32;99.97559;947.315;;;;
2019/11/08 05:19:51;;;;;;;13.4;12.1;;;;;;;6.33;99.08008;947.3669;;;;
2019/11/08 05:22:16;;;;;;;12.9;11.7;;;;;;;6.36;98.8125;947.3365;;;;
2019/11/08 05:24:41;;;;;;;12;10.8;;;;;;;6.65;97.90918;947.2776;;;;
2019/11/08 05:27:06;;;;;;;12.8;11.6;;;;;;;6.52;98.47363;947.2227;;;;
2019/11/08 05:29:31;;;;;;;14.8;12.5;;;;;;;6.43;98.37305;947.0814;;;;
2019/11/08 05:31:56;;;;;;;13;11.7;;;;;;;6.57;98.04102;946.9755;;;;
2019/11/08 05:34:22;;;;;;;14.8;12.7;;;;;;;6.59;97.40625;946.9492;;;;
2019/11/08 05:36:47;;;;;;;14;12.5;;;;;;;6.67;97.26563;946.9875;;;;
2019/11/08 05:39:12;;;;;;;14.8;12.6;;;;;;;6.68;97.08496;947.0103;;;;
2019/11/08 05:41:37;;;;;;;15.1;13;;;;;;;6.59;98.17285;947.0568;;;;
2019/11/08 05:44:02;;;;;;;17.2;14.6;;;;;;;6.54;99.02539;947.0656;;;;
2019/11/08 05:46:28;;;;;;;21.1;17.6;;;;;;;6.43;99.08008;947.1344;;;;
2019/11/08 05:48:53;;;;;;;20.4;18.1;;;;;;;6.47;99.04492;947.2364;;;;
2019/11/08 05:51:18;;;;;;;24.4;20.8;;;;;;;6.33;100;947.2544;;;;
2019/11/08 05:53:44;;;;;;;24.8;20.8;;;;;;;6.25;100;947.3141;;;;
2019/11/08 05:56:09;;;;;;;31.1;23.9;;;;;;;6.27;100;947.239;;;;
2019/11/08 05:58:34;;;;;;;31.9;24.7;;;;;;;6.31;100;947.2168;;;;
2019/11/08 06:00:59;;;;;;;30.2;23.2;;;;;;;6.45;99.97363;947.1785;;;;
2019/11/08 06:03:24;;;;;;;31.1;23.8;;;;;;;6.41;100;947.1805;;;;
2019/11/08 06:05:49;;;;;;;28.7;23.6;;;;;;;6.68;98.9209;947.1348;;;;
2019/11/08 06:08:14;;;;;;;32.9;25.6;;;;;;;6.73;98.52344;947.0231;;;;
2019/11/08 06:10:39;;;;;;;34.5;27.6;;;;;;;6.62;100;947.0628;;;;
2019/11/08 06:13:05;;;;;;;36.6;28.1;;;;;;;6.82;99.45605;946.9531;;;;
2019/11/08 06:15:30;;;;;;;38.4;30.5;;;;;;;6.74;99.97168;946.8993;;;;
2019/11/08 06:17:55;;;;;;;40;31.1;;;;;;;6.76;100;946.8414;;;;
2019/11/08 06:20:20;;;;;;;38.8;29.3;;;;;;;6.72;100;946.7938;;;;
2019/11/08 06:22:45;;;;;;;40.3;30.2;;;;;;;6.8;100;946.8151;;;;
2019/11/08 06:25:10;;;;;;;37.3;28.6;;;;;;;6.83;99.66406;946.7328;;;;
2019/11/08 06:27:36;;;;;;;33.8;26.8;;;;;;;6.82;99.13672;946.7045;;;;
2019/11/08 06:30:01;;;;;;;36.2;29;;;;;;;6.4;100;946.7299;;;;
2019/11/08 06:32:26;;;;;;;36.3;29.3;;;;;;;6.33;100;946.7981;;;;
2019/11/08 06:34:51;;;;;;;38.2;31;;;;;;;6.2;100;946.8053;;;;
2019/11/08 06:37:16;;;;;;;39.5;30.7;;;;;;;6.25;100;946.7427;;;;
2019/11/08 06:39:41;;;;;;;41;31.3;;;;;;;6.29;100;946.6255;;;;
2019/11/08 06:42:06;;;;;;;40.5;32.8;;;;;;;6.27;100;946.6379;;;;
2019/11/08 06:44:38;;;;;;;49.8;37.4;;;;;;;6.2;100;946.5959;;;;
2019/11/08 06:47:03;;;;;;;48;37.2;;;;;;;6.26;100;946.5813;;;;
2019/11/08 06:49:28;;;;;;;48.9;38.8;;;;;;;6.21;100;946.5369;;;;
2019/11/08 06:51:53;;;;;;;49.6;39.3;;;;;;;6.27;100;946.5797;;;;
2019/11/08 06:54:18;;;;;;;48.6;39.1;;;;;;;6.35;100;946.5809;;;;
2019/11/08 06:56:43;;;;;;;49.5;40.3;;;;;;;6.3;100;946.5939;;;;
2019/11/08 06:59:08;;;;;;;47.4;40;;;;;;;6.37;100;946.5656;;;;
2019/11/08 07:01:33;;;;;;;49.6;40.8;;;;;;;6.36;100;946.5478;;;;
2019/11/08 07:03:58;;;;;;;52.7;41.8;;;;;;;6.29;100;946.5745;;;;
2019/11/08 07:06:23;;;;;;;52.9;41.9;;;;;;;6.32;100;946.5336;;;;
2019/11/08 07:08:49;;;;;;;52.6;41.7;;;;;;;6.29;100;946.5947;;;;
2019/11/08 07:11:14;;;;;;;51.9;42.7;;;;;;;6.35;100;946.6077;;;;
2019/11/08 07:13:39;;;;;;;54.7;43.1;;;;;;;6.28;100;946.5453;;;;
2019/11/08 07:16:04;;;;;;;59.3;45.2;;;;;;;6.28;100;946.5385;;;;
2019/11/08 07:18:30;;;;;;;55.9;43.3;;;;;;;6.47;100;946.4677;;;;
2019/11/08 07:20:55;;;;;;;56.2;43.4;;;;;;;6.33;100;946.4568;;;;
2019/11/08 07:23:20;;;;;;;59.7;44.6;;;;;;;6.35;100;946.3998;;;;
2019/11/08 07:25:45;;;;;;;64.2;46.6;;;;;;;6.29;100;946.4548;;;;
2019/11/08 07:28:10;;;;;;;61.2;45.7;;;;;;;6.29;100;946.4791;;;;
2019/11/08 07:30:35;;;;;;;66.7;48.5;;;;;;;6.33;100;946.4366;;;;
2019/11/08 07:33:00;;;;;;;65.2;47.4;;;;;;;6.31;100;946.454;;;;
2019/11/08 07:35:26;;;;;;;63.6;46.3;;;;;;;6.38;100;946.3435;;;;
2019/11/08 07:37:51;;;;;;;57.7;44.9;;;;;;;6.52;100;946.3503;;;;
2019/11/08 07:40:16;;;;;;;60.3;45;;;;;;;6.54;100;946.2921;;;;
2019/11/08 07:42:41;;;;;;;59.7;44.8;;;;;;;6.53;100;946.2266;;;;
2019/11/08 07:45:06;;;;;;;56.9;42.3;;;;;;;6.55;100;946.2358;;;;
2019/11/08 07:47:31;;;;;;;55.6;43;;;;;;;6.57;100;946.2447;;;;
2019/11/08 07:50:01;;;;;;;59.2;44.6;;;;;;;6.7;100;946.1891;;;;
2019/11/08 07:52:21;;;;;;;52.9;43.5;;;;;;;6.84;100;946.2131;;;;
2019/11/08 07:54:46;;;;;;;56.9;43.5;;;;;;;6.77;100;946.2529;;;;
2019/11/08 07:57:11;;;;;;;61.9;47.1;;;;;;;6.63;100;946.2172;;;;
2019/11/08 07:59:36;;;;;;;64.6;47.1;;;;;;;6.55;100;946.209;;;;
2019/11/08 08:02:02;;;;;;;59.5;46.3;;;;;;;6.62;100;946.1434;;;;
2019/11/08 08:04:27;;;;;;;58.5;44.3;;;;;;;6.68;99.69727;946.1409;;;;
2019/11/08 08:06:52;;;;;;;59.9;44.1;;;;;;;6.57;100;946.1347;;;;
2019/11/08 08:09:17;;;;;;;56.7;43.5;;;;;;;6.74;100;946.1336;;;;
2019/11/08 08:11:42;;;;;;;60.3;44.5;;;;;;;6.57;99.74023;946.129;;;;
2019/11/08 08:14:07;;;;;;;61.3;44.7;;;;;;;6.38;100;946.1429;;;;
2019/11/08 08:16:32;;;;;;;59.3;44.8;;;;;;;6.22;100;946.1389;;;;
2019/11/08 08:18:57;;;;;;;54.9;42.8;;;;;;;6.41;100;946.1563;;;;
2019/11/08 08:21:22;;;;;;;57.7;44.1;;;;;;;6.28;100;946.2667;;;;
2019/11/08 08:23:48;;;;;;;56.5;43.8;;;;;;;6.14;100;946.2012;;;;
2019/11/08 08:26:13;;;;;;;54;42.4;;;;;;;6.18;100;946.1223;;;;
2019/11/08 08:28:38;;;;;;;54.3;42.3;;;;;;;6.42;100;946.1636;;;;
2019/11/08 08:31:05;;;;;;;48.4;38.1;;;;;;;6.43;100;946.1716;;;;
2019/11/08 08:33:30;;;;;;;47.5;38.6;;;;;;;6.33;100;946.1891;;;;
2019/11/08 08:35:53;;;;;;;47.4;38;;;;;;;6.43;100;946.2639;;;;
2019/11/08 08:38:20;;;;;;;46.8;37.3;;;;;;;6.32;99.9873;946.253;;;;
2019/11/08 08:40:46;;;;;;;44.9;37;;;;;;;6.28;100;946.2573;;;;
2019/11/08 08:43:11;;;;;;;44.4;36.5;;;;;;;6.39;100;946.1559;;;;
2019/11/08 08:45:37;;;;;;;44.5;36.6;;;;;;;6.39;100;946.1267;;;;
2019/11/08 08:48:01;;;;;;;39.3;33.5;;;;;;;6.61;99.47461;946.1175;;;;
2019/11/08 08:50:26;;;;;;;43.6;35.3;;;;;;;6.59;99.80176;946.0938;;;;
2019/11/08 08:52:51;;;;;;;40.7;33.2;;;;;;;6.77;98.62207;946.0238;;;;
2019/11/08 08:55:19;;;;;;;39.4;33.1;;;;;;;6.73;98.2373;945.9017;;;;
2019/11/08 08:57:45;;;;;;;39.2;33.6;;;;;;;6.71;97.95801;945.9543;;;;
2019/11/08 09:00:10;;;;;;;39.6;33.2;;;;;;;6.63;98.0332;945.8967;;;;
2019/11/08 09:02:37;;;;;;;39.1;32.9;;;;;;;6.64;98.2832;945.8311;;;;
2019/11/08 09:05:01;;;;;;;41.2;34.2;;;;;;;6.62;99.60449;945.8651;;;;
2019/11/08 09:07:28;;;;;;;42.8;32.9;;;;;;;6.6;98.33203;945.8987;;;;
2019/11/08 09:09:54;;;;;;;38.1;31.8;;;;;;;6.79;97.63379;945.9242;;;;
2019/11/08 09:12:19;;;;;;;33.7;28.6;;;;;;;6.98;95.76172;945.9686;;;;
2019/11/08 09:14:47;;;;;;;37.9;29.9;;;;;;;6.82;96.86621;945.9508;;;;
2019/11/08 09:19:15;;;;;;;37.3;31.5;;;;;;;6.61;98.47168;945.9752;;;;
2019/11/08 09:21:40;;;;;;;33.7;30;;;;;;;6.65;97.86328;946.0087;;;;
2019/11/08 09:24:05;;;;;;;37.4;31.3;;;;;;;6.61;98.14258;946.0164;;;;
2019/11/08 09:26:30;;;;;;;34.8;29.7;;;;;;;6.79;97.09961;946.0913;;;;
2019/11/08 09:28:55;;;;;;;36.2;30.8;;;;;;;6.64;97.24609;946.0779;;;;
2019/11/08 09:31:20;;;;;;;34.7;30.9;;;;;;;6.7;98.05859;946.0803;;;;
2019/11/08 09:33:46;;;;;;;34;29.8;;;;;;;6.85;97.07813;946.0952;;;;
2019/11/08 09:36:11;;;;;;;33.5;27.9;;;;;;;6.96;96.30566;946.1092;;;;
2019/11/08 09:38:36;;;;;;;33.8;30.1;;;;;;;6.98;96.0791;946.1451;;;;
2019/11/08 09:41:01;;;;;;;34.1;30.2;;;;;;;6.88;96.15918;946.147;;;;
2019/11/08 09:43:26;;;;;;;35.1;31.3;;;;;;;6.75;96.66797;946.1344;;;;
2019/11/08 09:45:51;;;;;;;37.5;31.3;;;;;;;6.7;97.23926;946.2028;;;;
2019/11/08 09:48:16;;;;;;;35.7;30.7;;;;;;;6.77;97.19629;946.2189;;;;
2019/11/08 09:50:41;;;;;;;33.9;30;;;;;;;6.76;96.90918;946.1274;;;;
2019/11/08 09:53:06;;;;;;;34;29.8;;;;;;;6.93;96.4668;946.0845;;;;
2019/11/08 09:55:31;;;;;;;36.7;29.9;;;;;;;6.89;97.3252;946.1376;;;;
2019/11/08 09:57:57;;;;;;;32.5;28.8;;;;;;;7.01;96.05273;946.0993;;;;
2019/11/08 10:00:22;;;;;;;33.9;29.8;;;;;;;6.93;95.62207;946.2255;;;;
2019/11/08 10:02:47;;;;;;;33.4;29.6;;;;;;;6.96;95.96094;946.3035;;;;
2019/11/08 10:05:12;;;;;;;37.2;29.9;;;;;;;7.08;96.68359;946.3972;;;;
2019/11/08 10:07:37;;;;;;;36.5;29.5;;;;;;;7.23;96.72949;946.3647;;;;
2019/11/08 10:10:02;;;;;;;34.6;28.6;;;;;;;7.24;95.32813;946.3326;;;;
2019/11/08 10:12:28;;;;;;;33.2;28.8;;;;;;;7.24;95.0752;946.2935;;;;
2019/11/08 10:14:54;;;;;;;36;30.2;;;;;;;7.11;96.62305;946.2477;;;;
2019/11/08 10:17:19;;;;;;;33.9;30.3;;;;;;;7.11;96.32617;946.1861;;;;
2019/11/08 10:19:44;;;;;;;35.5;30.4;;;;;;;6.95;95.68457;946.165;;;;
2019/11/08 10:22:10;;;;;;;34.8;30.9;;;;;;;7.05;95.55664;946.1806;;;;
2019/11/08 10:24:35;;;;;;;36.1;31.9;;;;;;;7.02;96.37402;946.1616;;;;
2019/11/08 10:27:00;;;;;;;33.3;29.7;;;;;;;6.96;96.13184;946.1788;;;;
2019/11/08 10:31:50;;;;;;;38.6;32.4;;;;;;;6.71;96.31543;946.0758;;;;
2019/11/08 10:34:15;;;;;;;35.1;31.2;;;;;;;6.83;96.09082;946.0261;;;;
2019/11/08 10:36:40;;;;;;;34.9;31.2;;;;;;;6.98;95.47363;946.0179;;;;
2019/11/08 10:39:05;;;;;;;34.5;30.2;;;;;;;7.09;94.59766;946.0703;;;;
2019/11/08 10:41:30;;;;;;;35.8;30.7;;;;;;;7.11;94.5332;946.1124;;;;
2019/11/08 10:43:55;;;;;;;31.6;28.2;;;;;;;7.26;94.53125;946.1365;;;;
2019/11/08 10:46:20;;;;;;;36.5;29.1;;;;;;;7.25;93.40918;946.1099;;;;
2019/11/08 10:48:46;;;;;;;34;29.9;;;;;;;7.23;93.57715;946.1322;;;;
2019/11/08 10:51:11;;;;;;;33.2;29.7;;;;;;;7.24;93.71777;946.0952;;;;
2019/11/08 10:53:36;;;;;;;35.8;30.9;;;;;;;7.19;94.80469;946.0881;;;;
2019/11/08 10:56:02;;;;;;;34.5;30.7;;;;;;;7.13;93.67871;946.0414;;;;
2019/11/08 10:58:27;;;;;;;35.5;30.8;;;;;;;7.04;94.10645;946.0729;;;;
2019/11/08 11:00:53;;;;;;;35;31.2;;;;;;;6.94;95.07813;946.1253;;;;
2019/11/08 11:03:18;;;;;;;36.3;30.8;;;;;;;7.03;94.67578;946.0705;;;;
2019/11/08 11:05:43;;;;;;;35.9;30.7;;;;;;;7.12;93.95313;946.1078;;;;
2019/11/08 11:08:08;;;;;;;36.6;31.7;;;;;;;7.01;94.7168;946.0969;;;;
2019/11/08 11:10:33;;;;;;;36.4;31.8;;;;;;;7;95.74023;946.0472;;;;
2019/11/08 11:12:59;;;;;;;36.8;32.8;;;;;;;7.03;96.02051;946.0297;;;;
2019/11/08 11:15:24;;;;;;;35.5;31.7;;;;;;;7.21;95.08008;946.0075;;;;
2019/11/08 11:17:49;;;;;;;33.7;30.1;;;;;;;7.31;94.1084;946.0083;;;;
2019/11/08 11:20:14;;;;;;;35.6;31;;;;;;;7.38;94.28418;946.0615;;;;
2019/11/08 11:22:39;;;;;;;34.4;30.6;;;;;;;7.34;93.00684;946.0158;;;;
2019/11/08 11:25:05;;;;;;;37.3;32.2;;;;;;;7.17;93.79395;946.0069;;;;
2019/11/08 11:27:30;;;;;;;36.6;31.5;;;;;;;7.33;93.83887;946.005;;;;
2019/11/08 11:29:55;;;;;;;37.1;31.4;;;;;;;7.33;94.6377;946.0309;;;;
2019/11/08 11:32:21;;;;;;;35.7;31.8;;;;;;;7.3;94.47266;946.0372;;;;
2019/11/08 11:34:46;;;;;;;36.2;32.2;;;;;;;7.22;95.45898;946.0228;;;;
2019/11/08 11:37:11;;;;;;;38.1;32.3;;;;;;;7.32;96.64844;946.095;;;;
2019/11/08 11:39:36;;;;;;;32.8;29.2;;;;;;;7.56;94.63184;946.0581;;;;
2019/11/08 11:42:01;;;;;;;38.3;34.1;;;;;;;7.29;96.1377;945.9739;;;;
2019/11/08 11:44:26;;;;;;;35.9;32;;;;;;;7.13;95.93945;945.9685;;;;
2019/11/08 11:46:51;;;;;;;37.1;32.2;;;;;;;7.19;95.89844;946.0371;;;;
2019/11/08 11:49:16;;;;;;;38.9;33.4;;;;;;;7.31;98.06055;946.0123;;;;
2019/11/08 11:51:42;;;;;;;38.5;33.6;;;;;;;7.29;97.45313;945.9731;;;;
2019/11/08 11:54:07;;;;;;;38.2;33.5;;;;;;;7.29;97.78418;945.9877;;;;
2019/11/08 11:56:32;;;;;;;36.4;31.4;;;;;;;7.32;97.41406;946.0131;;;;
2019/11/08 11:58:57;;;;;;;37.7;32.9;;;;;;;7.34;97.56641;945.9559;;;;
2019/11/08 12:01:22;;;;;;;36.9;33.1;;;;;;;7.42;99.26465;945.8594;;;;
2019/11/08 12:03:47;;;;;;;36.4;32.5;;;;;;;7.51;97.95898;945.7289;;;;
2019/11/08 12:06:13;;;;;;;35.2;31.5;;;;;;;7.63;97.25391;945.6593;;;;
2019/11/08 12:08:38;;;;;;;36.8;32.8;;;;;;;7.56;98.56543;945.6749;;;;
2019/11/08 12:11:04;;;;;;;36.2;32.1;;;;;;;7.49;98.37598;945.7003;;;;
2019/11/08 12:13:29;;;;;;;36.7;32.5;;;;;;;7.38;98.72852;945.675;;;;
2019/11/08 12:15:54;;;;;;;36.7;32.7;;;;;;;7.26;98.84961;945.6683;;;;
2019/11/08 12:18:19;;;;;;;36.1;32.2;;;;;;;7.4;97.16895;945.6007;;;;
2019/11/08 12:20:44;;;;;;;36.3;31.7;;;;;;;7.31;97.22656;945.553;;;;
2019/11/08 12:23:26;;;;;;;35.4;31.5;;;;;;;7.29;98.14844;945.5843;;;;
2019/11/08 12:25:41;;;;;;;35.9;32;;;;;;;7.43;98.83203;945.5847;;;;
2019/11/08 12:27:59;;;;;;;35.7;31.8;;;;;;;7.52;97.97266;945.5595;;;;
2019/11/08 12:30:25;;;;;;;34.3;30.7;;;;;;;7.45;97.75098;945.5914;;;;
2019/11/08 12:32:50;;;;;;;35.6;31.8;;;;;;;7.37;98.00879;945.4919;;;;
2019/11/08 12:35:15;;;;;;;36;32.1;;;;;;;7.27;97.81055;945.418;;;;
2019/11/08 12:37:40;;;;;;;36.5;32;;;;;;;7.18;97.72363;945.4175;;;;
2019/11/08 12:40:06;;;;;;;37.2;32.6;;;;;;;7.23;98.6709;945.3901;;;;
2019/11/08 12:42:31;;;;;;;35.3;31.5;;;;;;;7.37;98.27148;945.3752;;;;
2019/11/08 12:44:56;;;;;;;40.5;34.6;;;;;;;7.22;99.52539;945.3173;;;;
2019/11/08 12:47:22;;;;;;;38.5;34.3;;;;;;;7.21;100;945.2726;;;;
2019/11/08 12:49:47;;;;;;;37.3;33.2;;;;;;;7.14;99.97461;945.2047;;;;
2019/11/08 12:52:12;;;;;;;35.6;30.9;;;;;;;7.29;99.50684;945.2253;;;;
2019/11/08 12:54:37;;;;;;;36.1;31.5;;;;;;;7.33;100;945.1964;;;;
2019/11/08 12:57:02;;;;;;;34.1;30.2;;;;;;;7.35;100;945.2056;;;;
2019/11/08 12:59:27;;;;;;;34.9;31.1;;;;;;;7.38;100;945.188;;;;
2019/11/08 13:01:53;;;;;;;32.7;29.1;;;;;;;7.48;98.29395;945.2797;;;;
2019/11/08 13:04:18;;;;;;;33.4;29.7;;;;;;;7.35;98.85938;945.3692;;;;
2019/11/08 13:06:43;;;;;;;34;30.3;;;;;;;7.23;99.04688;945.2905;;;;
2019/11/08 13:09:08;;;;;;;36.3;30.8;;;;;;;7.15;99.00586;945.2347;;;;
2019/11/08 13:11:34;;;;;;;33.7;30;;;;;;;7.13;99.42383;945.1407;;;;
2019/11/08 13:13:59;;;;;;;35.2;30.3;;;;;;;7.11;98.47266;945.2141;;;;
2019/11/08 13:16:24;;;;;;;34.6;28.5;;;;;;;7.23;98.03125;945.2662;;;;
2019/11/08 13:18:50;;;;;;;34.8;30.8;;;;;;;7.26;99.58984;945.3159;;;;
2019/11/08 13:21:15;;;;;;;33;29.2;;;;;;;7.12;99.01074;945.3583;;;;
2019/11/08 13:23:40;;;;;;;32.5;29;;;;;;;7.04;99.55176;945.3181;;;;
2019/11/08 13:26:05;;;;;;;32.5;29.1;;;;;;;7.2;99.41797;945.3073;;;;
2019/11/08 13:28:30;;;;;;;34;29.1;;;;;;;7.19;99.64453;945.466;;;;
2019/11/08 13:30:56;;;;;;;30.3;27.1;;;;;;;7.15;98.77734;945.4941;;;;
2019/11/08 13:33:21;;;;;;;32.3;28.8;;;;;;;7.27;100;945.4417;;;;
2019/11/08 13:35:46;;;;;;;31.2;27.5;;;;;;;7.2;98.6875;945.4692;;;;
2019/11/08 13:38:11;;;;;;;32.2;28.1;;;;;;;7.27;100;945.5187;;;;
2019/11/08 13:40:36;;;;;;;30.5;27.2;;;;;;;7.31;98.7002;945.6161;;;;
2019/11/08 13:43:01;;;;;;;29.2;26.2;;;;;;;7.41;98.93066;945.7368;;;;
2019/11/08 13:45:26;;;;;;;29.9;26.7;;;;;;;7.44;99.0166;945.8359;;;;
2019/11/08 13:47:52;;;;;;;27.5;24.7;;;;;;;7.44;97.29199;945.8173;;;;
2019/11/08 13:50:17;;;;;;;27.6;24.7;;;;;;;7.39;96.66211;945.9353;;;;
2019/11/08 13:52:42;;;;;;;29.8;26.1;;;;;;;7.43;99.33496;946.0734;;;;
2019/11/08 13:55:07;;;;;;;28.7;25.7;;;;;;;7.47;97.90332;946.1312;;;;
2019/11/08 13:57:33;;;;;;;28.6;25.5;;;;;;;7.46;98.47266;946.1903;;;;
2019/11/08 13:59:58;;;;;;;29.6;26.4;;;;;;;7.47;98.12012;946.2065;;;;
2019/11/08 14:04:52;;;;;;;27.3;24.5;;;;;;;7.54;97.46289;946.3719;;;;
2019/11/08 14:07:13;;;;;;;27.3;24.4;;;;;;;7.57;97.29688;946.3494;;;;
2019/11/08 14:09:39;;;;;;;26.6;23.8;;;;;;;7.66;95.65039;946.3412;;;;
2019/11/08 14:12:04;;;;;;;28.4;25.5;;;;;;;7.61;96.9873;946.4023;;;;
2019/11/08 14:14:29;;;;;;;26.3;23.5;;;;;;;7.76;95.69336;946.3745;;;;
2019/11/08 14:16:55;;;;;;;27.3;24.5;;;;;;;7.76;95.36133;946.4304;;;;
2019/11/08 14:19:20;;;;;;;28;25.1;;;;;;;7.71;95.96875;946.4567;;;;
2019/11/08 14:21:45;;;;;;;29.6;26.5;;;;;;;7.63;96.70313;946.4072;;;;
2019/11/08 14:24:10;;;;;;;31.7;28.2;;;;;;;7.67;96.13086;946.4434;;;;
2019/11/08 14:26:35;;;;;;;32.4;28.9;;;;;;;7.54;96.46875;946.4651;;;;
2019/11/08 14:29:00;;;;;;;33.7;30;;;;;;;7.62;96.58691;946.4486;;;;
2019/11/08 14:31:25;;;;;;;35;29.3;;;;;;;7.56;95.83398;946.4756;;;;
2019/11/08 14:33:50;;;;;;;34.4;30.6;;;;;;;7.53;96.74023;946.4802;;;;
2019/11/08 14:36:16;;;;;;;33.6;28.7;;;;;;;7.6;97.04199;946.4956;;;;
2019/11/08 14:38:41;;;;;;;33.2;29.6;;;;;;;7.59;97.32422;946.4945;;;;
2019/11/08 14:41:07;;;;;;;31.9;28.2;;;;;;;7.6;96.89355;946.5305;;;;
2019/11/08 14:43:32;;;;;;;31.2;26.9;;;;;;;7.67;96.0625;946.5342;;;;
2019/11/08 14:45:57;;;;;;;34.4;29;;;;;;;7.66;96.74805;946.5391;;;;
2019/11/08 14:48:22;;;;;;;33.4;27.5;;;;;;;7.7;95.11914;946.5597;;;;
2019/11/08 14:50:47;;;;;;;34.7;29.6;;;;;;;7.53;96.40918;946.5256;;;;
2019/11/08 14:53:12;;;;;;;33.1;28.4;;;;;;;7.69;96.01074;946.5045;;;;
2019/11/08 14:55:38;;;;;;;35.5;29.8;;;;;;;7.41;95.87793;946.4928;;;;
2019/11/08 14:58:03;;;;;;;35.8;30.5;;;;;;;7.41;96.81738;946.5179;;;;
2019/11/08 15:00:28;;;;;;;37.6;31.5;;;;;;;7.4;98.35742;946.5358;;;;
2019/11/08 15:02:53;;;;;;;39;30.6;;;;;;;7.52;98.56543;946.5783;;;;
2019/11/08 15:05:18;;;;;;;38.9;32.2;;;;;;;7.36;99.11035;946.5971;;;;
2019/11/08 15:07:44;;;;;;;40;31.6;;;;;;;7.37;97.87891;946.6806;;;;
2019/11/08 15:10:09;;;;;;;41.7;34.6;;;;;;;7.15;99.87402;946.7205;;;;
2019/11/08 15:12:34;;;;;;;43.1;35.2;;;;;;;7.11;100;946.774;;;;
2019/11/08 15:15:00;;;;;;;41.7;33.5;;;;;;;7.14;100;946.8231;;;;
2019/11/08 15:17:25;;;;;;;42.6;34.8;;;;;;;7.25;100;946.9677;;;;
2019/11/08 15:19:51;;;;;;;42.9;35;;;;;;;7.2;100;946.9719;;;;
2019/11/08 15:22:16;;;;;;;38.4;33.3;;;;;;;7.24;100;946.9855;;;;
2019/11/08 15:24:41;;;;;;;39.6;32.1;;;;;;;7.22;99.5498;947.0273;;;;